createdAt,value
2023-02-13T00:01:38.448Z,25.57
2023-02-13T00:06:40.126Z,25.97
2023-02-13T00:11:41.956Z,24.70
2023-02-13T00:16:43.661Z,26.90
2023-02-13T00:21:45.394Z,25.97
2023-02-13T00:26:47.147Z,28.57
2023-02-13T00:31:48.990Z,26.93
2023-02-13T00:36:50.856Z,25.03
2023-02-13T00:41:52.515Z,24.93
2023-02-13T00:46:54.433Z,27.57
2023-02-13T00:51:56.174Z,26.07
2023-02-13T00:56:57.956Z,28.73
2023-02-13T01:01:59.706Z,27.97
2023-02-13T01:07:01.520Z,26.03
2023-02-13T01:12:03.443Z,28.93
2023-02-13T01:17:05.218Z,27.60
2023-02-13T01:22:08.598Z,26.80
2023-02-13T01:27:10.296Z,29.87
2023-02-13T01:32:12.142Z,26.00
2023-02-13T01:37:14.266Z,27.27
2023-02-13T01:42:21.489Z,28.50
2023-02-13T01:47:40.306Z,27.17
2023-02-13T01:52:49.154Z,28.97
2023-02-13T01:57:57.613Z,27.17
2023-02-13T02:03:08.822Z,28.10
2023-02-13T02:08:13.684Z,28.37
2023-02-13T02:13:20.612Z,27.43
2023-02-13T02:18:24.364Z,29.23
2023-02-13T02:23:38.087Z,27.20
2023-02-13T02:29:18.407Z,29.63
2023-02-13T02:34:37.409Z,30.03
2023-02-13T02:40:14.101Z,33.40
2023-02-13T02:45:48.544Z,30.13
2023-02-13T02:50:59.363Z,30.87
2023-02-13T02:56:08.554Z,30.63
2023-02-13T03:01:34.933Z,29.13
2023-02-13T03:06:44.441Z,26.17
2023-02-13T03:12:09.748Z,29.07
2023-02-13T03:17:33.816Z,31.17
2023-02-13T03:22:41.179Z,29.23
2023-02-13T03:28:32.603Z,35.00
2023-02-13T03:33:56.135Z,29.97
2023-02-13T03:39:01.544Z,34.30
2023-02-13T03:44:30.570Z,27.53
2023-02-13T03:50:08.010Z,32.37
2023-02-13T03:55:33.619Z,29.00
2023-02-13T04:00:49.056Z,33.23
2023-02-13T04:05:59.910Z,27.13
2023-02-13T04:11:07.306Z,29.83
2023-02-13T04:16:18.319Z,27.60
2023-02-13T04:21:20.101Z,31.63
2023-02-13T04:26:23.757Z,35.13
2023-02-13T04:31:25.498Z,31.37
2023-02-13T04:36:27.327Z,32.70
2023-02-13T04:41:29.061Z,32.70
2023-02-13T04:46:30.770Z,35.13
2023-02-13T04:51:32.442Z,32.07
2023-02-13T04:56:34.229Z,32.87
2023-02-13T05:01:35.928Z,31.47
2023-02-13T05:06:38.471Z,30.40
2023-02-13T05:11:40.163Z,32.10
2023-02-13T05:16:41.842Z,29.67
2023-02-13T05:22:02.224Z,31.23
2023-02-13T05:27:03.942Z,34.53
2023-02-13T05:32:05.793Z,35.00
2023-02-13T05:37:07.572Z,34.67
2023-02-13T05:42:10.580Z,37.63
2023-02-13T05:47:12.275Z,43.57
2023-02-13T05:52:13.947Z,45.57
2023-02-13T05:57:15.786Z,50.63
2023-02-13T06:02:17.504Z,51.00
2023-02-13T06:07:19.192Z,43.23
2023-02-13T06:12:20.856Z,44.43
2023-02-13T06:17:22.524Z,43.30
2023-02-13T06:22:24.195Z,41.73
2023-02-13T06:27:25.852Z,37.33
2023-02-13T06:32:27.648Z,38.33
2023-02-13T06:37:29.345Z,40.83
2023-02-13T06:42:31.082Z,40.87
2023-02-13T06:47:32.735Z,39.23
2023-02-13T06:52:35.905Z,43.40
2023-02-13T06:57:37.643Z,53.13
2023-02-13T07:02:41.129Z,55.83
2023-02-13T07:07:43.334Z,42.43
2023-02-13T07:12:49.169Z,40.60
2023-02-13T07:17:57.274Z,48.63
2023-02-13T07:23:00.364Z,71.47
2023-02-13T07:28:06.701Z,72.00
2023-02-13T07:33:10.027Z,67.23
2023-02-13T07:38:12.780Z,71.20
2023-02-13T07:43:14.457Z,58.87
2023-02-13T07:48:16.222Z,48.80
2023-02-13T07:53:17.950Z,53.03
2023-02-13T07:58:19.608Z,49.00
2023-02-13T08:03:21.286Z,49.83
2023-02-13T08:08:23.009Z,48.53
2023-02-13T08:13:24.680Z,48.00
2023-02-13T08:18:26.401Z,56.17
2023-02-13T08:23:28.079Z,47.57
2023-02-13T08:28:30.232Z,48.03
2023-02-13T08:33:31.925Z,46.67
2023-02-13T08:38:34.235Z,43.43
2023-02-13T08:43:35.888Z,38.73
2023-02-13T08:48:37.599Z,36.20
2023-02-13T08:53:39.876Z,34.03
2023-02-13T08:58:41.558Z,32.27
2023-02-13T09:03:43.207Z,29.60
2023-02-13T09:08:44.882Z,33.53
2023-02-13T09:13:48.292Z,37.10
2023-02-13T09:18:51.086Z,36.83
2023-02-13T09:23:55.115Z,32.80
2023-02-13T09:28:56.846Z,32.33
2023-02-13T09:33:58.608Z,30.33
2023-02-13T09:39:00.685Z,35.47
2023-02-13T09:44:33.935Z,32.97
2023-02-13T09:49:38.653Z,35.10
2023-02-13T09:54:40.600Z,34.20
2023-02-13T09:59:45.051Z,31.93
2023-02-13T10:05:13.401Z,31.80
2023-02-13T10:10:30.448Z,38.77
2023-02-13T10:15:38.313Z,31.17
2023-02-13T10:20:52.438Z,31.37
2023-02-13T10:26:03.845Z,30.07
2023-02-13T10:31:10.152Z,31.00
2023-02-13T10:36:11.923Z,30.70
2023-02-13T10:41:47.968Z,29.50
2023-02-13T10:47:04.604Z,30.90
2023-02-13T10:52:34.478Z,28.33
2023-02-13T10:57:54.977Z,27.10
2023-02-13T11:02:57.916Z,56.08
2023-02-13T11:07:59.646Z,27.77
2023-02-13T11:13:24.613Z,24.58
2023-02-13T11:18:29.780Z,26.83
2023-02-13T11:23:31.440Z,28.67
2023-02-13T11:28:37.553Z,26.07
2023-02-13T11:33:39.723Z,31.23
2023-02-13T11:38:41.714Z,30.23
2023-02-13T11:43:48.088Z,30.77
2023-02-13T11:49:04.705Z,31.50
2023-02-13T11:54:16.979Z,30.03
2023-02-13T11:59:21.966Z,29.87
2023-02-13T12:04:23.626Z,30.00
2023-02-13T12:09:25.576Z,31.90
2023-02-13T12:14:40.694Z,31.97
2023-02-13T12:19:49.519Z,32.20
2023-02-13T12:25:18.774Z,34.83
2023-02-13T12:31:01.997Z,31.63
2023-02-13T12:36:25.869Z,30.60
2023-02-13T12:42:17.328Z,28.07
2023-02-13T12:47:26.598Z,28.23
2023-02-13T12:52:51.628Z,29.10
2023-02-13T12:58:51.148Z,27.77
2023-02-13T13:04:17.620Z,27.13
2023-02-13T13:09:31.688Z,24.95
2023-02-13T13:14:46.400Z,27.73
2023-02-13T13:20:14.321Z,25.60
2023-02-13T13:25:25.717Z,25.05
2023-02-13T13:30:33.244Z,27.60
2023-02-13T13:35:39.892Z,26.55
2023-02-13T13:41:00.534Z,26.92
2023-02-13T13:46:13.998Z,27.58
2023-02-13T13:51:18.728Z,27.17
2023-02-13T13:56:20.383Z,28.90
2023-02-13T14:01:30.725Z,31.08
2023-02-13T14:06:44.177Z,26.85
2023-02-13T14:11:47.221Z,27.40
2023-02-13T14:16:49.112Z,29.93
2023-02-13T14:21:50.951Z,30.97
2023-02-13T14:27:05.189Z,31.43
2023-02-13T14:32:18.603Z,30.37
2023-02-13T14:37:36.996Z,34.20
2023-02-13T14:42:39.622Z,35.17
2023-02-13T14:47:53.329Z,34.50
2023-02-13T14:52:59.218Z,32.73
2023-02-13T14:58:23.230Z,35.50
2023-02-13T15:03:25.089Z,39.07
2023-02-13T15:08:42.935Z,36.43
2023-02-13T15:13:44.591Z,37.63
2023-02-13T15:18:52.220Z,42.10
2023-02-13T15:23:56.473Z,42.63
2023-02-13T15:29:05.819Z,37.13
2023-02-13T15:34:22.577Z,37.83
2023-02-13T15:39:27.327Z,39.30
2023-02-13T15:44:35.188Z,40.97
2023-02-13T15:49:43.794Z,40.83
2023-02-13T15:54:54.162Z,43.70
2023-02-13T15:59:57.361Z,44.10
2023-02-13T16:05:01.609Z,43.00
2023-02-13T16:10:29.611Z,40.07
2023-02-13T16:15:34.475Z,47.70
2023-02-13T16:20:37.996Z,43.47
2023-02-13T16:25:41.337Z,46.60
2023-02-13T16:30:52.426Z,52.57
2023-02-13T16:36:00.151Z,47.73
2023-02-13T16:41:05.873Z,47.87
2023-02-13T16:46:19.485Z,53.77
2023-02-13T16:51:32.777Z,52.60
2023-02-13T16:56:47.122Z,62.43
2023-02-13T17:02:01.841Z,56.40
2023-02-13T17:07:03.496Z,52.97
2023-02-13T17:12:13.110Z,52.97
2023-02-13T17:17:18.416Z,57.53
2023-02-13T17:22:30.248Z,58.03
2023-02-13T17:27:32.139Z,53.37
2023-02-13T17:32:33.864Z,66.33
2023-02-13T17:37:35.632Z,64.03
2023-02-13T17:42:37.697Z,65.73
2023-02-13T17:47:39.335Z,72.90
2023-02-13T17:52:42.070Z,66.17
2023-02-13T17:57:44.234Z,51.67
2023-02-13T18:02:47.760Z,66.67
2023-02-13T18:07:49.692Z,64.20
2023-02-13T18:12:53.044Z,55.80
2023-02-13T18:17:54.698Z,61.90
2023-02-13T18:22:56.385Z,63.53
2023-02-13T18:27:58.194Z,59.60
2023-02-13T18:33:00.156Z,62.50
2023-02-13T18:38:01.841Z,71.17
2023-02-13T18:43:03.493Z,64.33
2023-02-13T18:48:05.449Z,70.03
2023-02-13T18:53:08.075Z,60.43
2023-02-13T18:58:09.814Z,67.47
2023-02-13T19:03:11.458Z,59.30
2023-02-13T19:08:13.334Z,66.30
2023-02-13T19:13:14.992Z,64.77
2023-02-13T19:18:16.641Z,60.07
2023-02-13T19:23:18.362Z,56.80
2023-02-13T19:28:20.242Z,59.00
2023-02-13T19:33:21.944Z,61.30
2023-02-13T19:38:23.632Z,69.40
2023-02-13T19:43:25.304Z,122.10
2023-02-13T19:48:27.100Z,152.67
2023-02-13T19:53:28.822Z,87.73
2023-02-13T19:58:30.817Z,69.73
2023-02-13T20:03:32.452Z,71.17
2023-02-13T20:08:34.910Z,69.37
2023-02-13T20:13:36.718Z,64.53
2023-02-13T20:18:38.920Z,60.97
2023-02-13T20:23:41.795Z,119.07
2023-02-13T20:28:45.022Z,87.73
2023-02-13T20:33:47.465Z,169.47
2023-02-13T20:38:51.852Z,312.27
2023-02-13T20:43:56.683Z,252.43
2023-02-13T20:48:58.770Z,339.30
2023-02-13T20:54:00.568Z,284.07
2023-02-13T20:59:03.204Z,106.03
2023-02-13T21:04:04.869Z,79.33
2023-02-13T21:09:08.636Z,84.13
2023-02-13T21:14:11.908Z,97.47
2023-02-13T21:19:16.889Z,201.57
2023-02-13T21:24:21.609Z,108.13
2023-02-13T21:29:23.286Z,181.10
2023-02-13T21:34:24.950Z,152.37
2023-02-13T21:39:26.777Z,80.03
2023-02-13T21:44:28.527Z,146.53
2023-02-13T21:49:30.212Z,179.73
2023-02-13T21:54:31.905Z,242.23
2023-02-13T21:59:33.555Z,133.83
2023-02-13T22:04:35.247Z,128.70
2023-02-13T22:09:36.969Z,127.73
2023-02-13T22:14:38.689Z,66.73
2023-02-13T22:19:40.421Z,66.43
2023-02-13T22:24:42.059Z,70.07
2023-02-13T22:29:43.717Z,93.07
2023-02-13T22:34:45.360Z,75.93
2023-02-13T22:39:47.238Z,51.73
2023-02-13T22:44:48.888Z,63.90
2023-02-13T22:49:50.601Z,118.80
2023-02-13T22:54:52.323Z,79.10
2023-02-13T22:59:53.969Z,229.80
2023-02-13T23:04:55.624Z,159.20
2023-02-13T23:09:57.264Z,109.40
2023-02-13T23:14:59.139Z,67.87
2023-02-13T23:20:00.809Z,51.97
2023-02-13T23:25:05.189Z,50.73
2023-02-13T23:30:08.335Z,49.00
2023-02-13T23:35:10.593Z,54.67
2023-02-13T23:40:16.828Z,51.27
2023-02-13T23:45:18.582Z,50.77
2023-02-13T23:50:20.386Z,54.67
2023-02-13T23:55:22.068Z,57.47
